createdAt,value
2018-07-03T00:00:35.506Z,1012.15
2018-07-03T00:01:44.935Z,1012.16
2018-07-03T00:02:54.345Z,1012.16
2018-07-03T00:04:03.227Z,1012.11
2018-07-03T00:05:12.890Z,1012.11
2018-07-03T00:06:22.827Z,1012.14
2018-07-03T00:07:31.979Z,1012.1
2018-07-03T00:08:41.398Z,1012.12
2018-07-03T00:09:50.812Z,1012.1
2018-07-03T00:10:59.710Z,1012.07
2018-07-03T00:12:09.386Z,1012.04
2018-07-03T00:13:18.538Z,1012.05
2018-07-03T00:14:27.959Z,1012.06
2018-07-03T00:15:37.426Z,1012.03
2018-07-03T00:16:47.106Z,1012.05
2018-07-03T00:17:56.533Z,1012.08
2018-07-03T00:19:05.434Z,1012.06
2018-07-03T00:20:14.845Z,1012.11
2018-07-03T00:21:23.989Z,1012.1
2018-07-03T00:22:33.914Z,1012.07
2018-07-03T00:23:43.845Z,1012.07
2018-07-03T00:24:52.742Z,1012.06
2018-07-03T00:26:02.151Z,1012.01
2018-07-03T00:27:11.305Z,1012.04
2018-07-03T00:28:20.716Z,1011.99
2018-07-03T00:29:30.393Z,1011.99
2018-07-03T00:30:39.802Z,1011.98
2018-07-03T00:31:49.467Z,1011.99
2018-07-03T00:32:58.359Z,1011.97
2018-07-03T00:34:07.511Z,1011.98
2018-07-03T00:35:16.923Z,1011.97
2018-07-03T00:36:26.845Z,1011.98
2018-07-03T00:37:36.244Z,1012
2018-07-03T00:38:45.651Z,1011.98
2018-07-03T00:39:55.061Z,1012
2018-07-03T00:41:04.723Z,1011.97
2018-07-03T00:42:14.416Z,1011.99
2018-07-03T00:43:23.568Z,1011.98
2018-07-03T00:44:32.451Z,1011.98
2018-07-03T00:45:41.596Z,1011.97
2018-07-03T00:46:50.749Z,1011.95
2018-07-03T00:48:00.154Z,1011.94
2018-07-03T00:49:09.564Z,1011.98
2018-07-03T00:50:18.970Z,1011.95
2018-07-03T00:51:28.400Z,1011.96
2018-07-03T00:52:37.559Z,1011.93
2018-07-03T00:53:46.715Z,1011.94
2018-07-03T00:54:55.884Z,1011.89
2018-07-03T00:56:05.308Z,1011.9
2018-07-03T00:57:14.467Z,1011.83
2018-07-03T00:58:23.877Z,1011.87
2018-07-03T00:59:33.275Z,1011.87
2018-07-03T01:00:42.679Z,1011.85
2018-07-03T01:01:52.332Z,1011.89
2018-07-03T01:03:01.220Z,1011.89
2018-07-03T01:04:10.367Z,1011.87
2018-07-03T01:05:19.781Z,1011.88
2018-07-03T01:06:29.184Z,1011.86
2018-07-03T01:07:38.849Z,1011.84
2018-07-03T01:08:48.242Z,1011.83
2018-07-03T01:09:57.138Z,1011.84
2018-07-03T01:11:06.296Z,1011.84
2018-07-03T01:12:15.450Z,1011.8
2018-07-03T01:13:24.857Z,1011.8
2018-07-03T01:14:34.261Z,1011.81
2018-07-03T01:15:43.658Z,1011.79
2018-07-03T01:16:53.062Z,1011.81
2018-07-03T01:18:02.463Z,1011.78
2018-07-03T01:19:11.863Z,1011.79
2018-07-03T01:20:21.810Z,1011.78
2018-07-03T01:21:31.467Z,1011.76
2018-07-03T01:22:40.624Z,1011.79
2018-07-03T01:23:49.762Z,1011.79
2018-07-03T01:24:58.918Z,1011.8
2018-07-03T01:26:08.839Z,1011.73
2018-07-03T01:27:18.506Z,1011.77
2018-07-03T01:28:27.706Z,1011.78
2018-07-03T01:29:37.101Z,1011.76
2018-07-03T01:30:45.733Z,1011.78
2018-07-03T01:31:55.139Z,1011.78
2018-07-03T01:33:04.540Z,1011.79
2018-07-03T01:34:13.445Z,1011.75
2018-07-03T01:35:23.369Z,1011.77
2018-07-03T01:36:32.798Z,1011.8
2018-07-03T01:37:42.474Z,1011.78
2018-07-03T01:38:51.881Z,1011.8
2018-07-03T01:40:01.533Z,1011.78
2018-07-03T01:41:10.943Z,1011.78
2018-07-03T01:42:20.333Z,1011.79
2018-07-03T01:43:30.017Z,1011.79
2018-07-03T01:44:39.427Z,1011.77
2018-07-03T01:45:48.575Z,1011.76
2018-07-03T01:46:58.301Z,1011.77
2018-07-03T01:48:07.211Z,1011.77
2018-07-03T01:49:16.351Z,1011.78
2018-07-03T01:50:25.502Z,1011.77
2018-07-03T01:51:35.158Z,1011.76
2018-07-03T01:52:44.614Z,1011.78
2018-07-03T01:53:53.757Z,1011.78
2018-07-03T01:55:03.162Z,1011.78
2018-07-03T01:56:12.306Z,1011.8
2018-07-03T01:57:21.449Z,1011.78
2018-07-03T01:58:31.379Z,1011.8
2018-07-03T01:59:40.791Z,1011.82
2018-07-03T02:00:49.696Z,1011.8
2018-07-03T02:01:59.365Z,1011.79
2018-07-03T02:03:08.790Z,1011.76
2018-07-03T02:04:17.943Z,1011.77
2018-07-03T02:05:27.373Z,1011.74
2018-07-03T02:06:36.766Z,1011.76
2018-07-03T02:07:46.693Z,1011.74
2018-07-03T02:08:56.633Z,1011.78
2018-07-03T02:10:06.037Z,1011.76
2018-07-03T02:11:15.441Z,1011.75
2018-07-03T02:12:25.102Z,1011.71
2018-07-03T02:13:34.753Z,1011.72
2018-07-03T02:14:43.899Z,1011.72
2018-07-03T02:15:52.806Z,1011.75
2018-07-03T02:17:02.481Z,1011.74
2018-07-03T02:18:11.645Z,1011.73
2018-07-03T02:19:21.311Z,1011.73
2018-07-03T02:20:30.710Z,1011.72
2018-07-03T02:21:40.125Z,1011.71
2018-07-03T02:22:50.044Z,1011.69
2018-07-03T02:23:59.747Z,1011.67
2018-07-03T02:25:09.149Z,1011.7
2018-07-03T02:26:18.310Z,1011.69
2018-07-03T02:27:27.723Z,1011.72
2018-07-03T02:28:37.372Z,1011.7
2018-07-03T02:29:46.558Z,1011.75
2018-07-03T02:30:55.455Z,1011.69
2018-07-03T02:32:05.123Z,1011.69
2018-07-03T02:33:14.526Z,1011.69
2018-07-03T02:34:24.194Z,1011.68
2018-07-03T02:35:33.627Z,1011.67
2018-07-03T02:36:43.056Z,1011.67
2018-07-03T02:37:52.510Z,1011.67
2018-07-03T02:39:01.426Z,1011.67
2018-07-03T02:40:11.226Z,1011.68
2018-07-03T02:41:20.899Z,1011.68
2018-07-03T02:42:30.842Z,1011.68
2018-07-03T02:43:39.990Z,1011.69
2018-07-03T02:44:49.394Z,1011.73
2018-07-03T02:45:58.807Z,1011.71
2018-07-03T02:47:07.450Z,1011.71
2018-07-03T02:48:16.907Z,1011.75
2018-07-03T02:49:26.564Z,1011.73
2018-07-03T02:50:36.503Z,1011.67
2018-07-03T02:51:45.650Z,1011.7
2018-07-03T02:52:55.067Z,1011.66
2018-07-03T02:54:04.545Z,1011.66
2018-07-03T02:55:13.464Z,1011.68
2018-07-03T02:56:23.126Z,1011.69
2018-07-03T02:57:32.791Z,1011.68
2018-07-03T02:58:42.465Z,1011.71
2018-07-03T02:59:52.132Z,1011.69
2018-07-03T03:01:01.788Z,1011.71
2018-07-03T03:02:10.677Z,1011.73
2018-07-03T03:03:20.078Z,1011.69
2018-07-03T03:04:28.972Z,1011.72
2018-07-03T03:05:38.373Z,1011.74
2018-07-03T03:06:47.521Z,1011.75
2018-07-03T03:07:57.193Z,1011.78
2018-07-03T03:09:06.344Z,1011.79
2018-07-03T03:10:15.504Z,1011.76
2018-07-03T03:11:24.666Z,1011.8
2018-07-03T03:12:34.101Z,1011.77
2018-07-03T03:13:43.522Z,1011.76
2018-07-03T03:14:52.441Z,1011.7
2018-07-03T03:16:02.102Z,1011.75
2018-07-03T03:17:12.061Z,1011.68
2018-07-03T03:18:21.732Z,1011.74
2018-07-03T03:19:31.158Z,1011.71
2018-07-03T03:20:40.336Z,1011.71
2018-07-03T03:21:49.759Z,1011.71
2018-07-03T03:22:59.186Z,1011.69
2018-07-03T03:24:08.596Z,1011.68
2018-07-03T03:25:18.000Z,1011.69
2018-07-03T03:26:27.163Z,1011.66
2018-07-03T03:27:37.092Z,1011.64
2018-07-03T03:28:46.499Z,1011.66
2018-07-03T03:29:55.644Z,1011.65
2018-07-03T03:31:05.052Z,1011.67
2018-07-03T03:32:14.967Z,1011.69
2018-07-03T03:33:24.380Z,1011.69
2018-07-03T03:34:33.783Z,1011.76
2018-07-03T03:35:43.460Z,1011.71
2018-07-03T03:36:53.119Z,1011.7
2018-07-03T03:38:02.258Z,1011.71
2018-07-03T03:39:11.402Z,1011.71
2018-07-03T03:40:20.553Z,1011.68
2018-07-03T03:41:29.957Z,1011.7
2018-07-03T03:42:39.610Z,1011.67
2018-07-03T03:43:49.025Z,1011.69
2018-07-03T03:44:58.435Z,1011.67
2018-07-03T03:46:08.093Z,1011.7
2018-07-03T03:47:17.247Z,1011.74
2018-07-03T03:48:26.669Z,1011.76
2018-07-03T03:49:36.330Z,1011.77
2018-07-03T03:50:45.223Z,1011.78
2018-07-03T03:51:54.167Z,1011.81
2018-07-03T03:53:03.318Z,1011.82
2018-07-03T03:54:12.725Z,1011.85
2018-07-03T03:55:21.871Z,1011.86
2018-07-03T03:56:31.548Z,1011.83
2018-07-03T03:57:40.704Z,1011.83
2018-07-03T03:58:49.863Z,1011.81
2018-07-03T03:59:59.269Z,1011.85
2018-07-03T04:01:08.162Z,1011.83
2018-07-03T04:02:18.090Z,1011.88
2018-07-03T04:03:27.491Z,1011.86
2018-07-03T04:04:37.151Z,1011.9
2018-07-03T04:05:46.834Z,1011.92
2018-07-03T04:06:56.260Z,1011.92
2018-07-03T04:08:06.199Z,1011.96
2018-07-03T04:09:15.103Z,1011.97
2018-07-03T04:10:24.505Z,1011.97
2018-07-03T04:11:33.926Z,1011.93
2018-07-03T04:12:43.328Z,1011.93
2018-07-03T04:13:52.479Z,1011.97
2018-07-03T04:15:02.169Z,1011.98
2018-07-03T04:16:11.317Z,1012.03
2018-07-03T04:17:20.732Z,1012
2018-07-03T04:18:30.140Z,1012.04
2018-07-03T04:19:39.041Z,1012.08
2018-07-03T04:20:48.714Z,1012.09
2018-07-03T04:21:58.123Z,1012.04
2018-07-03T04:23:07.524Z,1012.07
2018-07-03T04:24:16.925Z,1012.02
2018-07-03T04:25:26.598Z,1012.03
2018-07-03T04:26:35.745Z,1012.06
2018-07-03T04:27:45.155Z,1012.05
2018-07-03T04:28:54.557Z,1012.07
2018-07-03T04:30:03.957Z,1012.09
2018-07-03T04:31:13.357Z,1012.1
2018-07-03T04:32:22.511Z,1012.08
2018-07-03T04:33:32.463Z,1012.09
2018-07-03T04:34:41.920Z,1012.1
2018-07-03T04:35:51.662Z,1012.12
2018-07-03T04:37:01.099Z,1012.11
2018-07-03T04:38:10.505Z,1012.13
2018-07-03T04:39:20.164Z,1012.09
2018-07-03T04:40:29.614Z,1012.11
2018-07-03T04:41:38.504Z,1012.08
2018-07-03T04:42:48.436Z,1012.1
2018-07-03T04:43:57.600Z,1012.11
2018-07-03T04:45:06.994Z,1012.08
2018-07-03T04:46:16.663Z,1012.09
2018-07-03T04:47:26.061Z,1012.14
2018-07-03T04:48:35.218Z,1012.18
2018-07-03T04:49:44.379Z,1012.26
2018-07-03T04:50:53.280Z,1012.24
2018-07-03T04:52:02.448Z,1012.27
2018-07-03T04:53:12.117Z,1012.32
2018-07-03T04:54:21.818Z,1012.22
2018-07-03T04:55:31.542Z,1012.27
2018-07-03T04:56:40.953Z,1012.23
2018-07-03T04:57:50.105Z,1012.25
2018-07-03T04:58:59.768Z,1012.28
2018-07-03T05:00:08.926Z,1012.27
2018-07-03T05:01:18.076Z,1012.28
2018-07-03T05:02:27.763Z,1012.31
2018-07-03T05:03:37.679Z,1012.33
2018-07-03T05:04:47.130Z,1012.29
2018-07-03T05:05:55.776Z,1012.26
2018-07-03T05:07:05.530Z,1012.25
2018-07-03T05:08:15.194Z,1012.27
2018-07-03T05:09:24.598Z,1012.29
2018-07-03T05:10:33.749Z,1012.29
2018-07-03T05:11:43.418Z,1012.28
2018-07-03T05:12:52.823Z,1012.3
2018-07-03T05:14:02.760Z,1012.32
2018-07-03T05:15:12.685Z,1012.3
2018-07-03T05:16:22.351Z,1012.29
2018-07-03T05:17:31.544Z,1012.3
2018-07-03T05:18:41.322Z,1012.31
2018-07-03T05:19:50.718Z,1012.29
2018-07-03T05:20:59.894Z,1012.25
2018-07-03T05:22:09.573Z,1012.26
2018-07-03T05:23:18.979Z,1012.25
2018-07-03T05:24:28.386Z,1012.26
2018-07-03T05:25:38.103Z,1012.27
2018-07-03T05:26:46.996Z,1012.28
2018-07-03T05:27:56.143Z,1012.26
2018-07-03T05:29:05.297Z,1012.3
2018-07-03T05:30:15.016Z,1012.35
2018-07-03T05:31:24.576Z,1012.37
2018-07-03T05:32:34.976Z,1012.39
2018-07-03T05:33:44.684Z,1012.39
2018-07-03T05:34:54.634Z,1012.45
2018-07-03T05:36:03.793Z,1012.44
2018-07-03T05:37:13.640Z,1012.48
2018-07-03T05:38:22.568Z,1012.48
2018-07-03T05:39:31.971Z,1012.53
2018-07-03T05:40:41.440Z,1012.54
2018-07-03T05:41:51.098Z,1012.58
2018-07-03T05:43:00.585Z,1012.58
2018-07-03T05:44:10.068Z,1012.56
2018-07-03T05:45:19.487Z,1012.58
2018-07-03T05:46:29.179Z,1012.58
2018-07-03T05:47:39.113Z,1012.56
2018-07-03T05:48:48.531Z,1012.59
2018-07-03T05:49:57.945Z,1012.63
2018-07-03T05:51:07.109Z,1012.64
2018-07-03T05:52:16.521Z,1012.64
2018-07-03T05:53:25.172Z,1012.7
2018-07-03T05:54:34.575Z,1012.7
2018-07-03T05:55:43.722Z,1012.7
2018-07-03T05:56:53.272Z,1012.66
2018-07-03T05:58:02.935Z,1012.67
2018-07-03T05:59:12.597Z,1012.67
2018-07-03T06:00:22.516Z,1012.64
2018-07-03T06:01:31.655Z,1012.68
2018-07-03T06:02:41.073Z,1012.63
2018-07-03T06:03:50.482Z,1012.7
2018-07-03T06:04:59.823Z,1012.66
2018-07-03T06:06:08.455Z,1012.67
2018-07-03T06:07:17.384Z,1012.68
2018-07-03T06:08:27.055Z,1012.68
2018-07-03T06:09:36.525Z,1012.69
2018-07-03T06:10:45.512Z,1012.73
2018-07-03T06:11:54.658Z,1012.67
2018-07-03T06:13:04.110Z,1012.72
2018-07-03T06:14:13.012Z,1012.69
2018-07-03T06:15:21.917Z,1012.67
2018-07-03T06:16:31.592Z,1012.66
2018-07-03T06:17:41.269Z,1012.67
2018-07-03T06:18:50.936Z,1012.69
2018-07-03T06:19:59.828Z,1012.68
2018-07-03T06:21:09.558Z,1012.68
2018-07-03T06:22:18.714Z,1012.68
2018-07-03T06:23:28.122Z,1012.71
2018-07-03T06:24:37.775Z,1012.71
2018-07-03T06:25:46.946Z,1012.72
2018-07-03T06:26:55.841Z,1012.74
2018-07-03T06:28:05.015Z,1012.76
2018-07-03T06:29:14.465Z,1012.75
2018-07-03T06:30:23.617Z,1012.8
2018-07-03T06:31:32.778Z,1012.78
2018-07-03T06:32:42.477Z,1012.8
2018-07-03T06:33:51.902Z,1012.78
2018-07-03T06:35:01.054Z,1012.82
2018-07-03T06:36:10.723Z,1012.81
2018-07-03T06:37:19.890Z,1012.82
2018-07-03T06:38:29.163Z,1012.81
2018-07-03T06:39:38.838Z,1012.78
2018-07-03T06:40:48.252Z,1012.79
2018-07-03T06:41:57.936Z,1012.76
2018-07-03T06:43:07.317Z,1012.75
2018-07-03T06:44:17.277Z,1012.77
2018-07-03T06:45:27.042Z,1012.76
2018-07-03T06:46:36.211Z,1012.75
2018-07-03T06:47:45.815Z,1012.78
2018-07-03T06:48:55.810Z,1012.77
2018-07-03T06:50:05.235Z,1012.77
2018-07-03T06:51:14.898Z,1012.78
2018-07-03T06:52:23.534Z,1012.79
2018-07-03T06:53:32.686Z,1012.75
2018-07-03T06:54:42.355Z,1012.76
2018-07-03T06:55:51.514Z,1012.72
2018-07-03T06:57:00.982Z,1012.72
2018-07-03T06:58:10.447Z,1012.75
2018-07-03T06:59:20.117Z,1012.79
2018-07-03T07:00:29.534Z,1012.78
2018-07-03T07:01:39.199Z,1012.78
2018-07-03T07:02:48.862Z,1012.75
2018-07-03T07:03:58.283Z,1012.69
2018-07-03T07:05:07.181Z,1012.72
2018-07-03T07:06:16.084Z,1012.69
2018-07-03T07:07:24.998Z,1012.68
2018-07-03T07:08:34.983Z,1012.61
2018-07-03T07:09:44.999Z,1012.65
2018-07-03T07:10:54.156Z,1012.6
2018-07-03T07:12:03.572Z,1012.62
2018-07-03T07:13:13.564Z,1012.61
2018-07-03T07:14:23.235Z,1012.62
2018-07-03T07:15:32.923Z,1012.64
2018-07-03T07:16:42.327Z,1012.66
2018-07-03T07:17:51.494Z,1012.58
2018-07-03T07:19:00.665Z,1012.62
2018-07-03T07:20:10.082Z,1012.59
2018-07-03T07:21:19.753Z,1012.62
2018-07-03T07:22:29.154Z,1012.62
2018-07-03T07:23:38.311Z,1012.59
2018-07-03T07:24:47.983Z,1012.58
2018-07-03T07:25:57.662Z,1012.57
2018-07-03T07:27:06.851Z,1012.6
2018-07-03T07:28:16.261Z,1012.6
2018-07-03T07:29:25.411Z,1012.64
2018-07-03T07:30:35.352Z,1012.6
2018-07-03T07:31:45.025Z,1012.61
2018-07-03T07:32:54.442Z,1012.6
2018-07-03T07:34:03.869Z,1012.56
2018-07-03T07:35:13.672Z,1012.57
2018-07-03T07:36:22.587Z,1012.54
2018-07-03T07:37:31.999Z,1012.52
2018-07-03T07:38:41.146Z,1012.49
2018-07-03T07:39:50.041Z,1012.46
2018-07-03T07:40:59.707Z,1012.43
2018-07-03T07:42:09.115Z,1012.46
2018-07-03T07:43:18.789Z,1012.45
2018-07-03T07:44:27.691Z,1012.44
2018-07-03T07:45:37.102Z,1012.46
2018-07-03T07:46:47.040Z,1012.44
2018-07-03T07:47:55.709Z,1012.43
2018-07-03T07:49:05.763Z,1012.41
2018-07-03T07:50:15.184Z,1012.45
2018-07-03T07:51:24.847Z,1012.41
2018-07-03T07:52:33.997Z,1012.43
2018-07-03T07:53:43.195Z,1012.42
2018-07-03T07:54:52.625Z,1012.43
2018-07-03T07:56:02.635Z,1012.43
2018-07-03T07:57:12.306Z,1012.36
2018-07-03T07:58:21.726Z,1012.4
2018-07-03T07:59:31.174Z,1012.39
2018-07-03T08:00:39.861Z,1012.37
2018-07-03T08:01:49.830Z,1012.38
2018-07-03T08:02:59.244Z,1012.39
2018-07-03T08:04:08.169Z,1012.43
2018-07-03T08:05:17.067Z,1012.43
2018-07-03T08:06:26.739Z,1012.39
2018-07-03T08:07:36.426Z,1012.44
2018-07-03T08:08:46.108Z,1012.39
2018-07-03T08:09:55.793Z,1012.43
2018-07-03T08:11:05.212Z,1012.4
2018-07-03T08:12:14.396Z,1012.38
2018-07-03T08:13:23.643Z,1012.43
2018-07-03T08:14:33.161Z,1012.42
2018-07-03T08:15:42.855Z,1012.44
2018-07-03T08:16:52.023Z,1012.47
2018-07-03T08:18:01.183Z,1012.46
2018-07-03T08:19:10.390Z,1012.5
2018-07-03T08:20:20.239Z,1012.5
2018-07-03T08:21:29.405Z,1012.48
2018-07-03T08:22:38.302Z,1012.47
2018-07-03T08:23:48.225Z,1012.45
2018-07-03T08:24:57.131Z,1012.45
2018-07-03T08:26:06.567Z,1012.42
2018-07-03T08:27:15.743Z,1012.48
2018-07-03T08:28:25.176Z,1012.47
2018-07-03T08:29:34.352Z,1012.47
2018-07-03T08:30:44.081Z,1012.47
2018-07-03T08:31:53.266Z,1012.48
2018-07-03T08:33:02.172Z,1012.45
2018-07-03T08:34:11.322Z,1012.49
2018-07-03T08:35:20.742Z,1012.45
2018-07-03T08:36:29.896Z,1012.48
2018-07-03T08:37:39.721Z,1012.42
2018-07-03T08:38:49.521Z,1012.38
2018-07-03T08:39:58.417Z,1012.4
2018-07-03T08:41:07.847Z,1012.43
2018-07-03T08:42:17.527Z,1012.38
2018-07-03T08:43:26.681Z,1012.41
2018-07-03T08:44:35.586Z,1012.37
2018-07-03T08:45:44.763Z,1012.39
2018-07-03T08:46:54.441Z,1012.37
2018-07-03T08:48:04.360Z,1012.39
2018-07-03T08:49:13.800Z,1012.36
2018-07-03T08:50:23.214Z,1012.41
2018-07-03T08:51:32.404Z,1012.39
2018-07-03T08:52:42.276Z,1012.37
2018-07-03T08:53:51.512Z,1012.39
2018-07-03T08:55:00.953Z,1012.41
2018-07-03T08:56:10.568Z,1012.36
2018-07-03T08:57:19.997Z,1012.31
2018-07-03T08:58:29.403Z,1012.38
2018-07-03T08:59:38.839Z,1012.37
2018-07-03T09:00:48.555Z,1012.4
2018-07-03T09:01:58.799Z,1012.33
2018-07-03T09:03:07.957Z,1012.4
2018-07-03T09:04:17.375Z,1012.36
2018-07-03T09:05:26.292Z,1012.42
2018-07-03T09:06:35.707Z,1012.37
2018-07-03T09:07:45.379Z,1012.42
2018-07-03T09:08:54.545Z,1012.42
2018-07-03T09:10:03.704Z,1012.43
2018-07-03T09:11:12.867Z,1012.41
2018-07-03T09:12:22.829Z,1012.42
2018-07-03T09:13:31.726Z,1012.4
2018-07-03T09:14:41.139Z,1012.41
2018-07-03T09:15:50.294Z,1012.39
2018-07-03T09:16:59.725Z,1012.41
2018-07-03T09:18:08.927Z,1012.39
2018-07-03T09:19:19.027Z,1012.4
2018-07-03T09:20:28.432Z,1012.39
2018-07-03T09:21:37.834Z,1012.37
2018-07-03T09:22:46.990Z,1012.41
2018-07-03T09:23:55.880Z,1012.43
2018-07-03T09:25:05.093Z,1012.39
2018-07-03T09:26:14.258Z,1012.4
2018-07-03T09:27:23.147Z,1012.38
2018-07-03T09:28:32.302Z,1012.35
2018-07-03T09:29:41.722Z,1012.36
2018-07-03T09:30:50.872Z,1012.35
2018-07-03T09:32:00.537Z,1012.35
2018-07-03T09:33:09.960Z,1012.36
2018-07-03T09:34:19.639Z,1012.33
2018-07-03T09:35:29.066Z,1012.31
2018-07-03T09:36:37.963Z,1012.29
2018-07-03T09:37:47.151Z,1012.35
2018-07-03T09:38:56.842Z,1012.28
2018-07-03T09:40:06.533Z,1012.3
2018-07-03T09:41:16.228Z,1012.28
2018-07-03T09:42:26.237Z,1012.32
2018-07-03T09:43:36.430Z,1012.27
2018-07-03T09:44:45.598Z,1012.23
2018-07-03T09:45:55.003Z,1012.23
2018-07-03T09:47:04.406Z,1012.22
2018-07-03T09:48:13.319Z,1012.23
2018-07-03T09:49:22.730Z,1012.23
2018-07-03T09:50:32.458Z,1012.22
2018-07-03T09:51:41.432Z,1012.23
2018-07-03T09:52:51.108Z,1012.2
2018-07-03T09:54:00.260Z,1012.22
2018-07-03T09:55:09.938Z,1012.22
2018-07-03T09:56:19.618Z,1012.19
2018-07-03T09:57:29.591Z,1012.16
2018-07-03T09:58:39.320Z,1012.16
2018-07-03T09:59:48.486Z,1012.19
2018-07-03T10:00:57.387Z,1012.15
2018-07-03T10:02:07.069Z,1012.16
2018-07-03T10:03:16.752Z,1012.18
2018-07-03T10:04:26.169Z,1012.19
2018-07-03T10:05:35.857Z,1012.22
2018-07-03T10:06:45.534Z,1012.18
2018-07-03T10:07:55.466Z,1012.21
2018-07-03T10:09:04.892Z,1012.16
2018-07-03T10:10:13.801Z,1012.17
2018-07-03T10:11:22.992Z,1012.12
2018-07-03T10:12:32.658Z,1012.17
2018-07-03T10:13:42.349Z,1012.18
2018-07-03T10:14:51.761Z,1012.16
2018-07-03T10:16:01.191Z,1012.15
2018-07-03T10:17:10.859Z,1012.15
2018-07-03T10:18:20.290Z,1012.18
2018-07-03T10:19:30.228Z,1012.2
2018-07-03T10:20:39.138Z,1012.14
2018-07-03T10:21:48.554Z,1012.15
2018-07-03T10:22:58.219Z,1012.12
2018-07-03T10:24:07.638Z,1012.12
2018-07-03T10:25:17.573Z,1012.15
2018-07-03T10:26:27.308Z,1012.15
2018-07-03T10:27:36.470Z,1012.22
2018-07-03T10:28:45.896Z,1012.18
2018-07-03T10:29:54.801Z,1012.21
2018-07-03T10:31:03.950Z,1012.21
2018-07-03T10:32:13.736Z,1012.21
2018-07-03T10:33:23.413Z,1012.15
2018-07-03T10:34:32.836Z,1012.16
2018-07-03T10:35:41.744Z,1012.17
2018-07-03T10:36:50.898Z,1012.2
2018-07-03T10:38:00.329Z,1012.15
2018-07-03T10:39:10.016Z,1012.16
2018-07-03T10:40:19.166Z,1012.11
2018-07-03T10:41:28.584Z,1012.12
2018-07-03T10:42:37.748Z,1012.14
2018-07-03T10:43:47.340Z,1012.15
2018-07-03T10:44:57.010Z,1012.11
2018-07-03T10:46:05.915Z,1012.1
2018-07-03T10:47:15.346Z,1012.06
2018-07-03T10:48:24.494Z,1012.06
2018-07-03T10:49:33.902Z,1012.01
2018-07-03T10:50:42.804Z,1011.99
2018-07-03T10:51:52.216Z,1012.03
2018-07-03T10:53:01.679Z,1012.05
2018-07-03T10:54:11.359Z,1012
2018-07-03T10:55:20.901Z,1011.96
2018-07-03T10:56:30.306Z,1011.94
2018-07-03T10:57:39.719Z,1011.91
2018-07-03T10:58:49.139Z,1011.92
2018-07-03T10:59:58.811Z,1011.92
2018-07-03T11:01:08.230Z,1011.88
2018-07-03T11:02:17.405Z,1011.85
2018-07-03T11:03:26.606Z,1011.87
2018-07-03T11:04:35.754Z,1011.91
2018-07-03T11:05:44.684Z,1011.87
2018-07-03T11:06:54.168Z,1011.88
2018-07-03T11:08:03.329Z,1011.88
2018-07-03T11:09:13.029Z,1011.84
2018-07-03T11:10:22.192Z,1011.85
2018-07-03T11:11:31.100Z,1011.89
2018-07-03T11:12:40.517Z,1011.87
2018-07-03T11:13:50.034Z,1011.8
2018-07-03T11:15:00.190Z,1011.82
2018-07-03T11:16:09.364Z,1011.83
2018-07-03T11:17:18.263Z,1011.83
2018-07-03T11:18:28.211Z,1011.8
2018-07-03T11:19:37.454Z,1011.78
2018-07-03T11:20:47.536Z,1011.77
2018-07-03T11:21:56.700Z,1011.77
2018-07-03T11:23:06.116Z,1011.78
2018-07-03T11:24:15.610Z,1011.74
2018-07-03T11:25:25.309Z,1011.74
2018-07-03T11:26:34.477Z,1011.7
2018-07-03T11:27:44.033Z,1011.69
2018-07-03T11:28:53.446Z,1011.7
2018-07-03T11:30:03.016Z,1011.73
2018-07-03T11:31:12.179Z,1011.68
2018-07-03T11:32:21.615Z,1011.68
2018-07-03T11:33:30.788Z,1011.68
2018-07-03T11:34:40.299Z,1011.64
2018-07-03T11:35:49.984Z,1011.64
2018-07-03T11:36:59.653Z,1011.66
2018-07-03T11:38:09.326Z,1011.6
2018-07-03T11:39:18.288Z,1011.63
2018-07-03T11:40:27.704Z,1011.61
2018-07-03T11:41:36.605Z,1011.59
2018-07-03T11:42:45.774Z,1011.64
2018-07-03T11:43:55.473Z,1011.53
2018-07-03T11:45:04.375Z,1011.56
2018-07-03T11:46:13.781Z,1011.54
2018-07-03T11:47:23.510Z,1011.57
2018-07-03T11:48:33.191Z,1011.57
2018-07-03T11:49:42.852Z,1011.58
2018-07-03T11:50:52.532Z,1011.58
2018-07-03T11:52:01.449Z,1011.56
2018-07-03T11:53:11.126Z,1011.57
2018-07-03T11:54:20.561Z,1011.57
2018-07-03T11:55:29.977Z,1011.56
2018-07-03T11:56:39.408Z,1011.57
2018-07-03T11:57:48.829Z,1011.52
2018-07-03T11:58:58.722Z,1011.55
2018-07-03T12:00:08.390Z,1011.57
2018-07-03T12:01:18.357Z,1011.54
2018-07-03T12:02:28.611Z,1011.5
2018-07-03T12:03:38.296Z,1011.5
2018-07-03T12:04:47.466Z,1011.45
2018-07-03T12:05:57.131Z,1011.46
2018-07-03T12:07:06.544Z,1011.45
2018-07-03T12:08:15.955Z,1011.42
2018-07-03T12:09:25.394Z,1011.46
2018-07-03T12:10:35.074Z,1011.44
2018-07-03T12:11:44.736Z,1011.43
2018-07-03T12:12:54.152Z,1011.41
2018-07-03T12:14:03.317Z,1011.41
2018-07-03T12:15:12.745Z,1011.38
2018-07-03T12:16:22.436Z,1011.42
2018-07-03T12:17:32.151Z,1011.42
2018-07-03T12:18:41.045Z,1011.45
2018-07-03T12:19:50.204Z,1011.45
2018-07-03T12:21:00.078Z,1011.43
2018-07-03T12:22:09.231Z,1011.42
2018-07-03T12:23:18.394Z,1011.41
2018-07-03T12:24:27.588Z,1011.41
2018-07-03T12:25:37.274Z,1011.43
2018-07-03T12:26:47.000Z,1011.37
2018-07-03T12:27:55.903Z,1011.38
2018-07-03T12:29:05.626Z,1011.34
2018-07-03T12:30:15.622Z,1011.3
2018-07-03T12:31:24.774Z,1011.26
2018-07-03T12:32:34.446Z,1011.28
2018-07-03T12:33:43.592Z,1011.26
2018-07-03T12:34:53.032Z,1011.28
2018-07-03T12:36:02.184Z,1011.29
2018-07-03T12:37:11.604Z,1011.3
2018-07-03T12:38:21.043Z,1011.31
2018-07-03T12:39:31.057Z,1011.31
2018-07-03T12:40:40.224Z,1011.26
2018-07-03T12:41:49.891Z,1011.28
2018-07-03T12:42:59.047Z,1011.23
2018-07-03T12:44:08.550Z,1011.25
2018-07-03T12:45:18.134Z,1011.27
2018-07-03T12:46:28.095Z,1011.25
2018-07-03T12:47:37.772Z,1011.24
2018-07-03T12:48:46.945Z,1011.23
2018-07-03T12:49:56.356Z,1011.23
2018-07-03T12:51:05.824Z,1011.24
2018-07-03T12:52:15.500Z,1011.21
2018-07-03T12:53:24.916Z,1011.19
2018-07-03T12:54:33.816Z,1011.16
2018-07-03T12:55:42.987Z,1011.18
2018-07-03T12:56:52.136Z,1011.24
2018-07-03T12:58:02.074Z,1011.22
2018-07-03T12:59:11.240Z,1011.22
2018-07-03T13:00:20.652Z,1011.22
2018-07-03T13:01:29.829Z,1011.18
2018-07-03T13:02:38.735Z,1011.13
2018-07-03T13:03:48.419Z,1011.13
2018-07-03T13:04:58.394Z,1011.12
2018-07-03T13:06:08.289Z,1011.13
2018-07-03T13:07:17.785Z,1011.15
2018-07-03T13:08:26.960Z,1011.11
2018-07-03T13:09:35.591Z,1011.1
2018-07-03T13:10:44.747Z,1011.06
2018-07-03T13:11:54.430Z,1011.11
2018-07-03T13:13:03.606Z,1011.05
2018-07-03T13:14:13.301Z,1011.05
2018-07-03T13:15:22.749Z,1011.11
2018-07-03T13:16:32.166Z,1011.1
2018-07-03T13:17:41.321Z,1011.05
2018-07-03T13:18:51.238Z,1011.04
2018-07-03T13:20:00.913Z,1011.05
2018-07-03T13:21:10.591Z,1011.05
2018-07-03T13:22:20.446Z,1011.01
2018-07-03T13:23:30.116Z,1011.01
2018-07-03T13:24:39.779Z,1010.99
2018-07-03T13:25:49.450Z,1010.99
2018-07-03T13:26:59.118Z,1010.98
2018-07-03T13:28:08.282Z,1010.96
2018-07-03T13:29:17.698Z,1010.99
2018-07-03T13:30:27.106Z,1010.94
2018-07-03T13:31:36.321Z,1010.94
2018-07-03T13:32:45.495Z,1010.97
2018-07-03T13:33:54.678Z,1010.97
2018-07-03T13:35:04.605Z,1010.96
2018-07-03T13:36:14.277Z,1010.96
2018-07-03T13:37:24.061Z,1010.94
2018-07-03T13:38:33.485Z,1010.92
2018-07-03T13:39:43.184Z,1010.89
2018-07-03T13:40:52.602Z,1010.91
2018-07-03T13:42:02.063Z,1010.89
2018-07-03T13:43:11.896Z,1010.88
2018-07-03T13:44:21.067Z,1010.86
2018-07-03T13:45:30.466Z,1010.93
2018-07-03T13:46:39.888Z,1010.88
2018-07-03T13:47:49.827Z,1010.87
2018-07-03T13:48:59.239Z,1010.88
2018-07-03T13:50:08.679Z,1010.83
2018-07-03T13:51:18.118Z,1010.78
2018-07-03T13:52:27.810Z,1010.73
2018-07-03T13:53:37.484Z,1010.75
2018-07-03T13:54:47.438Z,1010.78
2018-07-03T13:55:57.109Z,1010.71
2018-07-03T13:57:06.777Z,1010.75
2018-07-03T13:58:16.207Z,1010.72
2018-07-03T13:59:25.364Z,1010.66
2018-07-03T14:00:34.531Z,1010.72
2018-07-03T14:01:43.442Z,1010.69
2018-07-03T14:02:53.122Z,1010.68